Dale, New York
Current Conditions -  °F | °C
As of 3:54 AM on Monday 20 Oct 2014 (Local Time) from KDSV Reporting Station
Overcast Overcast  
Wind Chill: 30°   Ceiling: 11000
Heat Index: 38°   Visibility: 10mi
Dew Point: 33°   Wind: 12mph
Humidity: 83%   Direction: 120°ESE
Pressure: 30.01"   Gusts: NA
Location:  42.82°N, 78.17°W
Report Text: KDSV 200754Z AUTO 12010KT 10SM OVC110 03/01 A3001 RMK AO2 SLP176 T00330006
Loading
Personal Weather Stations






























Interactive Weather Map
Tropical Storm Tracking
New forecast layout! Learn more

10-Day Weather Forecast

Advertisements
Track Severe Weather on mobile